Time;durP1;ratioP1;P1;durP2;ratioP2;P2;SDS_P1;SDS_P2;PMS_P1;PMS_P2;Temp;Humidity;BMP_temperature;BMP_pressure;BME280_temperature;BME280_humidity;BME280_pressure;Samples;Min_cycle;Max_cycle;Signal;HPM_P1;HPM_P2
2023/08/06 00:01:29;;;;;;;4.22;2.97;;;;;;;23.43;64.68;100469.97;5044279;28;20120;-70
2023/08/06 00:03:54;;;;;;;4.90;3.40;;;;;;;23.80;62.88;100464.69;5012070;28;20226;-71
2023/08/06 00:06:19;;;;;;;4.05;3.05;;;;;;;23.48;63.53;100473.19;5019601;28;20112;-72
2023/08/06 00:08:45;;;;;;;6.22;3.25;;;;;;;23.83;62.59;100472.47;5033628;28;20713;-71
2023/08/06 00:11:10;;;;;;;4.25;2.90;;;;;;;23.90;62.65;100472.09;5022175;28;20033;-72
2023/08/06 00:13:36;;;;;;;6.60;3.22;;;;;;;23.31;64.98;100465.50;5023922;28;20509;-70
2023/08/06 00:16:12;;;;;;;5.97;3.40;;;;;;;23.11;64.55;100465.03;5016352;28;20393;-71
2023/08/06 00:18:37;;;;;;;6.45;3.70;;;;;;;23.32;64.75;100461.88;5020517;28;20497;-70
2023/08/06 00:21:03;;;;;;;5.85;3.22;;;;;;;23.46;64.42;100464.41;5028681;28;20037;-71
2023/08/06 00:23:28;;;;;;;4.57;3.38;;;;;;;23.49;64.39;100468.69;5027855;28;20448;-72
2023/08/06 00:25:54;;;;;;;6.05;3.58;;;;;;;23.74;63.70;100467.81;5028898;28;20041;-72
2023/08/06 00:28:19;;;;;;;4.03;3.17;;;;;;;23.50;64.98;100465.91;5043993;28;20124;-72
2023/08/06 00:30:45;;;;;;;3.97;3.00;;;;;;;23.58;64.29;100469.88;5033628;28;20040;-72
2023/08/06 00:33:10;;;;;;;5.40;3.58;;;;;;;23.86;61.72;100476.75;5038504;28;20040;-71
2023/08/06 00:35:36;;;;;;;5.45;3.58;;;;;;;23.69;62.91;100469.97;5027401;28;20033;-71
2023/08/06 00:38:02;;;;;;;5.63;3.90;;;;;;;23.83;62.53;100466.31;5043729;28;20128;-72
2023/08/06 00:40:30;;;;;;;6.03;3.53;;;;;;;23.78;62.21;100469.31;5027107;28;20485;-72
2023/08/06 00:42:55;;;;;;;5.35;3.60;;;;;;;23.83;63.28;100467.16;5027624;28;20571;-72
2023/08/06 00:45:22;;;;;;;6.68;2.90;;;;;;;23.35;64.92;100469.66;5020940;28;20026;-72
2023/08/06 00:47:48;;;;;;;7.18;3.65;;;;;;;23.36;62.99;100464.22;5008557;28;20061;-72
2023/08/06 00:50:13;;;;;;;6.88;3.92;;;;;;;23.25;65.53;100465.94;5012048;28;20556;-71
2023/08/06 00:52:39;;;;;;;4.80;3.63;;;;;;;23.14;65.62;100462.19;5019465;28;20033;-71
2023/08/06 00:55:05;;;;;;;10.70;3.92;;;;;;;23.43;65.02;100464.66;5031782;28;20144;-71
2023/08/06 00:57:31;;;;;;;4.75;3.67;;;;;;;23.49;64.50;100468.69;5031016;28;20046;-71
2023/08/06 00:59:57;;;;;;;5.53;3.45;;;;;;;23.44;63.92;100471.69;5027364;28;20026;-71
2023/08/06 01:02:22;;;;;;;4.78;3.03;;;;;;;23.81;62.93;100466.41;5031210;28;20114;-71
2023/08/06 01:04:47;;;;;;;4.60;3.30;;;;;;;23.63;63.58;100459.72;5032546;28;20025;-71
2023/08/06 01:07:33;;;;;;;5.55;3.58;;;;;;;23.23;66.02;100468.69;5033083;28;20033;-71
2023/08/06 01:10:07;;;;;;;5.43;3.92;;;;;;;23.31;64.68;100470.84;5015027;28;20109;-71
2023/08/06 01:12:45;;;;;;;5.60;3.28;;;;;;;22.90;67.64;100471.81;5025057;28;20033;-71
2023/08/06 01:15:16;;;;;;;5.30;3.78;;;;;;;23.14;65.66;100475.50;5030882;28;20061;-71
2023/08/06 01:17:42;;;;;;;7.13;4.28;;;;;;;23.72;63.88;100461.72;5022339;28;20482;-72
2023/08/06 01:20:08;;;;;;;6.65;4.20;;;;;;;23.29;66.07;100468.28;5023119;28;20065;-71
2023/08/06 01:22:33;;;;;;;5.82;3.80;;;;;;;23.45;64.44;100457.41;5032254;28;20061;-70
2023/08/06 01:24:59;;;;;;;8.98;3.53;;;;;;;23.44;65.21;100460.16;5031592;28;20030;-71
2023/08/06 01:27:31;;;;;;;4.88;3.63;;;;;;;23.53;64.55;100464.84;5031369;28;20025;-72
2023/08/06 01:30:07;;;;;;;4.95;3.42;;;;;;;22.90;66.93;100471.81;5031385;28;20044;-72
2023/08/06 01:32:36;;;;;;;5.30;3.65;;;;;;;23.85;65.25;100465.22;5022961;28;20029;-71
2023/08/06 01:35:04;;;;;;;9.70;4.13;;;;;;;23.58;64.44;100464.53;5024046;28;20127;-73
2023/08/06 01:37:29;;;;;;;5.43;3.70;;;;;;;23.41;65.62;100463.91;5032063;28;20021;-72
2023/08/06 01:39:55;;;;;;;6.47;4.28;;;;;;;23.27;65.61;100464.00;5019347;28;20333;-72
2023/08/06 01:42:20;;;;;;;5.50;4.30;;;;;;;23.75;63.97;100466.84;5012678;28;20084;-71
2023/08/06 01:44:46;;;;;;;5.88;4.00;;;;;;;23.88;63.58;100470.38;5026418;28;20524;-71
2023/08/06 01:47:11;;;;;;;5.47;3.90;;;;;;;24.01;62.28;100473.00;5029144;28;20025;-72
2023/08/06 01:49:37;;;;;;;6.30;3.80;;;;;;;23.88;63.10;100475.72;5031356;28;20048;-71
2023/08/06 01:52:02;;;;;;;7.68;4.30;;;;;;;23.87;62.85;100479.31;5030726;28;20018;-71
2023/08/06 01:54:28;;;;;;;7.10;4.57;;;;;;;23.69;64.39;100486.81;5031329;28;20026;-71
2023/08/06 01:56:53;;;;;;;5.45;3.90;;;;;;;23.84;63.08;100484.88;5031249;28;20515;-71
2023/08/06 01:59:19;;;;;;;6.60;3.80;;;;;;;24.10;61.91;100490.19;5030582;28;20025;-71
2023/08/06 02:01:45;;;;;;;6.85;4.82;;;;;;;23.94;63.47;100486.91;5014568;28;20030;-72
2023/08/06 02:04:10;;;;;;;6.85;4.68;;;;;;;23.80;63.68;100494.06;5028419;28;20083;-71
2023/08/06 02:06:35;;;;;;;7.22;4.43;;;;;;;24.07;61.76;100490.41;5010541;28;20037;-72
2023/08/06 02:09:01;;;;;;;6.22;3.80;;;;;;;23.53;63.62;100492.38;5020621;28;20083;-71
2023/08/06 02:11:26;;;;;;;5.75;3.92;;;;;;;24.02;62.58;100495.22;5049463;28;20083;-71
2023/08/06 02:13:51;;;;;;;7.20;4.20;;;;;;;24.14;62.09;100489.00;5030939;28;20028;-72
2023/08/06 02:16:17;;;;;;;7.57;4.38;;;;;;;24.29;63.64;100494.19;5030013;28;20093;-71
2023/08/06 02:18:42;;;;;;;6.20;3.75;;;;;;;24.02;62.40;100488.06;5024144;28;20022;-71
2023/08/06 02:21:08;;;;;;;8.13;4.60;;;;;;;23.83;65.09;100499.16;5011209;28;20109;-72
2023/08/06 02:23:33;;;;;;;6.45;3.67;;;;;;;23.86;65.51;100496.31;5011921;28;20034;-72
2023/08/06 02:26:04;;;;;;;7.88;4.38;;;;;;;23.81;63.59;100487.75;5010488;28;20478;-72
2023/08/06 02:28:31;;;;;;;7.47;4.20;;;;;;;23.82;64.71;100494.81;5010959;28;20083;-72
2023/08/06 02:30:56;;;;;;;6.07;4.03;;;;;;;23.66;64.41;100492.38;5026591;28;20040;-72
2023/08/06 02:33:22;;;;;;;6.60;4.30;;;;;;;23.93;64.70;100494.06;5038411;28;20021;-72
2023/08/06 02:35:47;;;;;;;8.50;4.20;;;;;;;23.41;65.99;100497.72;5029399;28;20658;-72
2023/08/06 02:38:13;;;;;;;5.15;3.88;;;;;;;24.01;64.20;100501.53;5030420;28;20033;-72
2023/08/06 02:40:45;;;;;;;6.72;4.63;;;;;;;23.16;67.25;100505.59;5029213;28;20491;-72
2023/08/06 02:43:11;;;;;;;5.10;3.65;;;;;;;23.80;65.13;100496.72;5030348;28;20040;-72
2023/08/06 02:45:36;;;;;;;6.25;4.07;;;;;;;23.75;64.93;100495.34;5030141;28;20382;-73
2023/08/06 02:48:02;;;;;;;6.95;4.18;;;;;;;23.78;64.36;100506.66;5029498;28;20033;-72
2023/08/06 02:50:28;;;;;;;6.50;4.63;;;;;;;23.87;65.16;100491.81;5018849;28;20032;-72
2023/08/06 02:52:53;;;;;;;6.72;4.18;;;;;;;23.54;66.26;100495.91;5009965;28;20434;-72
2023/08/06 02:55:19;;;;;;;7.97;4.45;;;;;;;23.16;67.53;100510.06;5034601;28;20030;-73
2023/08/06 02:57:44;;;;;;;7.25;4.70;;;;;;;23.28;67.50;100503.03;5030893;28;20018;-72
2023/08/06 03:00:11;;;;;;;6.25;4.55;;;;;;;23.38;66.60;100499.63;5030242;28;20112;-72
2023/08/06 03:02:37;;;;;;;6.38;4.43;;;;;;;23.29;68.49;100499.44;5030093;28;20055;-72
2023/08/06 03:05:03;;;;;;;9.32;4.90;;;;;;;23.72;65.41;100501.75;5030594;28;20029;-73
2023/08/06 03:07:29;;;;;;;7.03;4.57;;;;;;;23.43;66.77;100491.31;5046539;28;20075;-72
2023/08/06 03:09:54;;;;;;;7.10;3.88;;;;;;;23.58;65.12;100496.53;5032873;28;20037;-72
2023/08/06 03:12:20;;;;;;;8.13;4.97;;;;;;;23.24;66.94;100506.88;5029119;28;20477;-72
2023/08/06 03:14:45;;;;;;;7.82;5.07;;;;;;;23.44;67.79;100503.69;5027736;28;20014;-72
2023/08/06 03:17:11;;;;;;;6.13;4.28;;;;;;;23.81;65.47;100503.78;5009352;28;20496;-73
2023/08/06 03:19:36;;;;;;;6.95;4.40;;;;;;;23.80;65.95;100503.88;5009863;28;20052;-72
2023/08/06 03:22:02;;;;;;;6.03;4.03;;;;;;;23.75;65.31;100501.53;5010455;28;20037;-72
2023/08/06 03:24:27;;;;;;;11.82;5.60;;;;;;;23.84;66.01;100500.03;5009524;28;20029;-72
2023/08/06 03:26:53;;;;;;;6.70;4.50;;;;;;;23.84;66.67;100503.56;5013426;28;20021;-72
2023/08/06 03:29:18;;;;;;;7.65;4.97;;;;;;;23.41;65.85;100497.72;5030375;28;20508;-72
2023/08/06 03:31:44;;;;;;;7.93;5.18;;;;;;;23.83;66.91;100493.84;5028485;28;20539;-72
2023/08/06 03:34:09;;;;;;;7.55;4.95;;;;;;;23.63;65.51;100497.94;5030947;28;20480;-72
2023/08/06 03:36:37;;;;;;;8.73;5.55;;;;;;;23.19;66.95;100502.72;5029999;28;20021;-72
2023/08/06 03:39:03;;;;;;;11.60;4.55;;;;;;;23.15;68.14;100509.22;5029533;28;20017;-72
2023/08/06 03:41:28;;;;;;;6.57;4.55;;;;;;;22.98;68.64;100507.63;5025244;28;20029;-72
2023/08/06 03:43:54;;;;;;;6.90;4.32;;;;;;;23.28;69.24;100508.38;5017563;28;20029;-72
2023/08/06 03:46:19;;;;;;;5.88;4.22;;;;;;;20.37;87.22;100520.88;5029420;28;20036;-72
2023/08/06 03:48:44;;;;;;;7.28;4.47;;;;;;;20.38;100.00;100538.53;5045504;28;20021;-72
2023/08/06 03:51:10;;;;;;;4.25;2.67;;;;;;;20.63;100.00;100532.66;5029188;28;20132;-73
2023/08/06 03:53:35;;;;;;;2.28;1.90;;;;;;;20.73;100.00;100519.78;5028272;28;20120;-72
2023/08/06 03:56:01;;;;;;;2.03;1.40;;;;;;;21.71;94.43;100517.56;5018613;28;20414;-72
2023/08/06 03:58:26;;;;;;;2.97;1.48;;;;;;;22.23;88.84;100525.84;5011303;28;20029;-72
2023/08/06 04:01:02;;;;;;;2.17;1.27;;;;;;;21.27;92.47;100526.41;5025092;28;20038;-70
2023/08/06 04:03:28;;;;;;;1.58;1.38;;;;;;;20.92;93.29;100534.63;5011018;28;20049;-72
2023/08/06 04:05:54;;;;;;;2.97;2.25;;;;;;;20.48;98.49;100538.84;5028842;28;20060;-69
2023/08/06 04:08:20;;;;;;;4.43;2.88;;;;;;;20.00;97.25;100538.81;5027815;28;20028;-68
2023/08/06 04:10:45;;;;;;;2.45;1.90;;;;;;;20.27;97.27;100560.34;5036860;28;20373;-71
2023/08/06 04:13:10;;;;;;;4.10;2.22;;;;;;;19.48;97.90;100569.78;5024176;28;20029;-71
2023/08/06 04:15:36;;;;;;;2.40;2.17;;;;;;;19.95;93.05;100583.34;5029263;28;20049;-72
2023/08/06 04:18:01;;;;;;;2.08;1.45;;;;;;;19.63;92.50;100583.16;5029122;28;20025;-72
2023/08/06 04:20:27;;;;;;;1.77;1.50;;;;;;;19.72;92.71;100582.69;5012501;28;20101;-71
2023/08/06 04:22:55;;;;;;;1.90;1.33;;;;;;;18.67;95.36;100587.91;5010136;28;20470;-72
2023/08/06 04:25:20;;;;;;;5.97;1.63;;;;;;;19.42;90.77;100585.16;5020640;28;20516;-72
2023/08/06 04:27:49;;;;;;;3.40;1.55;;;;;;;19.77;87.84;100582.44;5024240;28;20041;-72
2023/08/06 04:30:15;;;;;;;1.83;1.63;;;;;;;20.23;83.97;100573.88;5032236;28;20030;-72
2023/08/06 04:32:40;;;;;;;2.30;1.60;;;;;;;19.68;86.11;100578.50;5047748;28;20053;-71
2023/08/06 04:35:06;;;;;;;2.30;1.42;;;;;;;19.69;86.61;100582.00;5035902;28;20123;-74
2023/08/06 04:37:32;;;;;;;2.15;1.20;;;;;;;19.83;87.41;100585.66;5033057;28;20029;-72
2023/08/06 04:39:57;;;;;;;3.47;1.92;;;;;;;20.47;84.47;100591.09;5020211;28;20044;-73
2023/08/06 04:42:23;;;;;;;2.83;2.15;;;;;;;20.11;86.55;100589.53;5024275;28;20035;-73
2023/08/06 04:44:48;;;;;;;4.22;1.25;;;;;;;20.14;85.58;100589.34;5030225;28;20119;-73
2023/08/06 04:47:13;;;;;;;3.55;1.33;;;;;;;20.09;83.14;100590.53;5023595;28;20025;-73
2023/08/06 04:49:39;;;;;;;2.58;1.70;;;;;;;20.44;81.25;100588.63;5020425;28;20437;-73
2023/08/06 04:52:05;;;;;;;2.78;1.75;;;;;;;20.65;81.06;100593.69;5026624;28;20022;-74
2023/08/06 04:54:31;;;;;;;2.15;1.38;;;;;;;20.18;84.48;100592.69;5024055;28;20033;-74
2023/08/06 04:56:57;;;;;;;5.15;2.40;;;;;;;20.49;83.98;100598.97;5046746;28;20058;-73
2023/08/06 04:59:22;;;;;;;3.63;1.73;;;;;;;20.16;85.71;100598.06;5030708;28;20492;-73
2023/08/06 05:01:47;;;;;;;5.45;1.90;;;;;;;20.38;83.50;100601.38;5031652;28;20017;-73
2023/08/06 05:04:13;;;;;;;7.10;2.17;;;;;;;20.00;84.92;100597.19;5032829;28;20083;-72
2023/08/06 05:06:38;;;;;;;4.00;2.10;;;;;;;19.95;86.72;100607.19;5032098;28;20474;-72
2023/08/06 05:09:05;;;;;;;3.63;2.60;;;;;;;19.64;88.65;100616.72;5031585;28;20084;-72
2023/08/06 05:11:31;;;;;;;8.70;2.45;;;;;;;20.12;85.09;100607.13;5031830;28;20064;-72
2023/08/06 05:13:56;;;;;;;4.18;2.00;;;;;;;20.05;86.71;100605.75;5031437;28;20063;-72
2023/08/06 05:16:22;;;;;;;2.95;2.47;;;;;;;20.12;85.64;100609.78;5030921;28;20477;-72
2023/08/06 05:18:48;;;;;;;5.57;2.80;;;;;;;20.68;83.05;100620.94;5031981;28;20032;-72
2023/08/06 05:21:13;;;;;;;3.55;2.10;;;;;;;20.37;83.59;100616.44;5032190;28;20124;-72
2023/08/06 05:23:39;;;;;;;2.75;2.40;;;;;;;20.55;84.65;100619.03;5031014;28;20092;-72
2023/08/06 05:26:04;;;;;;;4.88;2.45;;;;;;;20.45;87.80;100630.13;5032922;28;20022;-72
2023/08/06 05:28:29;;;;;;;3.25;2.30;;;;;;;20.65;83.54;100625.56;5028917;28;20042;-72
2023/08/06 05:30:55;;;;;;;7.40;2.40;;;;;;;20.41;84.87;100644.50;5035504;28;20068;-72
2023/08/06 05:33:20;;;;;;;2.67;2.05;;;;;;;20.54;84.63;100643.84;5030559;28;20029;-72
2023/08/06 05:35:45;;;;;;;2.65;2.03;;;;;;;20.57;84.62;100644.53;5029712;28;20029;-72
2023/08/06 05:38:11;;;;;;;2.25;1.90;;;;;;;20.51;83.91;100655.47;5030286;28;20051;-72
2023/08/06 05:40:36;;;;;;;5.47;2.38;;;;;;;21.08;83.22;100655.03;5030606;28;20049;-72
2023/08/06 05:43:02;;;;;;;4.20;2.47;;;;;;;20.42;87.24;100667.47;5030005;28;20040;-72
2023/08/06 05:45:27;;;;;;;5.55;2.20;;;;;;;20.99;84.31;100668.81;5031674;28;20033;-71
2023/08/06 05:47:55;;;;;;;3.78;2.33;;;;;;;20.99;82.67;100671.47;5031091;28;20032;-72
2023/08/06 05:50:20;;;;;;;3.72;2.47;;;;;;;21.68;77.99;100670.19;5011124;28;20172;-72
2023/08/06 05:52:46;;;;;;;5.20;3.00;;;;;;;21.44;77.35;100671.59;5011117;28;20506;-72
2023/08/06 05:55:11;;;;;;;3.10;2.50;;;;;;;22.00;75.48;100671.88;5042463;28;20104;-71
2023/08/06 05:57:36;;;;;;;4.07;2.97;;;;;;;21.48;78.31;100679.28;5030111;28;20025;-71
2023/08/06 06:00:03;;;;;;;3.47;2.75;;;;;;;21.06;80.57;100685.28;5029856;28;20037;-72
2023/08/06 06:02:28;;;;;;;5.30;2.92;;;;;;;21.96;77.46;100681.00;5030283;28;20025;-72
2023/08/06 06:04:53;;;;;;;4.63;2.90;;;;;;;21.86;74.76;100689.53;5030780;28;20048;-72
2023/08/06 06:07:19;;;;;;;3.78;2.80;;;;;;;21.84;74.90;100683.44;5034493;28;20397;-73
2023/08/06 06:09:44;;;;;;;7.90;4.47;;;;;;;20.93;82.05;100688.63;5030481;28;20028;-72
2023/08/06 06:12:10;;;;;;;9.38;3.08;;;;;;;21.60;76.19;100687.56;5029735;28;20036;-73
2023/08/06 06:14:35;;;;;;;5.85;2.92;;;;;;;22.00;75.23;100696.66;5029634;28;20038;-72
2023/08/06 06:17:01;;;;;;;3.25;2.22;;;;;;;21.86;75.84;100697.50;5011300;28;20412;-73
2023/08/06 06:19:26;;;;;;;9.20;2.63;;;;;;;22.20;75.17;100703.47;5010873;28;20117;-73
2023/08/06 06:21:53;;;;;;;3.50;2.70;;;;;;;21.43;78.65;100702.66;5027795;28;20029;-74
2023/08/06 06:24:18;;;;;;;3.55;2.78;;;;;;;21.84;76.25;100702.06;5031450;28;20079;-73
2023/08/06 06:26:44;;;;;;;4.93;2.75;;;;;;;22.13;75.13;100702.13;5030905;28;20500;-74
2023/08/06 06:29:09;;;;;;;3.80;2.83;;;;;;;21.76;77.16;100709.66;5016203;28;20379;-74
2023/08/06 06:31:38;;;;;;;5.72;2.45;;;;;;;21.94;74.56;100706.81;5032060;28;20021;-74
2023/08/06 06:34:03;;;;;;;4.90;3.25;;;;;;;22.54;72.84;100716.50;5016707;28;20030;-74
2023/08/06 06:36:28;;;;;;;5.10;3.30;;;;;;;21.96;74.90;100711.09;5012630;28;20386;-74
2023/08/06 06:38:54;;;;;;;5.43;2.78;;;;;;;21.63;75.52;100724.59;5012116;28;20368;-74
2023/08/06 06:41:19;;;;;;;7.28;2.88;;;;;;;22.19;75.43;100717.72;5017844;28;20034;-74
2023/08/06 06:43:45;;;;;;;5.18;2.15;;;;;;;22.23;74.24;100718.38;5030279;28;20033;-74
2023/08/06 06:46:10;;;;;;;5.75;2.80;;;;;;;22.55;70.97;100720.06;5030144;28;20451;-72
2023/08/06 06:48:36;;;;;;;3.10;1.90;;;;;;;21.71;75.69;100738.31;5030311;28;20048;-73
2023/08/06 06:51:01;;;;;;;2.85;2.20;;;;;;;21.18;78.34;100730.63;5037805;28;20021;-73
2023/08/06 06:53:30;;;;;;;4.88;2.10;;;;;;;21.31;80.47;100733.44;5030919;28;20033;-72
2023/08/06 06:56:01;;;;;;;7.63;2.60;;;;;;;22.06;76.06;100735.34;5030839;28;20057;-73
2023/08/06 06:58:26;;;;;;;3.08;1.65;;;;;;;21.62;78.12;100742.34;5041937;28;20071;-72
2023/08/06 07:00:51;;;;;;;4.38;1.77;;;;;;;21.90;76.03;100739.88;5029109;28;20025;-72
2023/08/06 07:03:18;;;;;;;3.60;1.17;;;;;;;21.82;76.36;100741.19;5030162;28;20405;-72
2023/08/06 07:05:44;;;;;;;2.88;1.75;;;;;;;22.71;71.33;100734.13;5030774;28;20518;-72
2023/08/06 07:08:09;;;;;;;3.53;1.25;;;;;;;21.94;74.88;100744.06;5025363;28;20030;-73
2023/08/06 07:10:35;;;;;;;1.85;0.80;;;;;;;21.98;75.11;100740.28;5026572;28;20116;-74
2023/08/06 07:13:01;;;;;;;1.92;0.85;;;;;;;22.19;73.75;100749.66;5016010;28;20057;-72
2023/08/06 07:15:26;;;;;;;2.10;0.88;;;;;;;21.95;76.25;100746.63;5010509;28;20040;-72
2023/08/06 07:17:52;;;;;;;1.88;0.80;;;;;;;21.93;76.45;100748.53;5009605;28;20032;-72
2023/08/06 07:20:17;;;;;;;2.53;0.65;;;;;;;21.76;73.98;100749.53;5011044;28;20034;-73
2023/08/06 07:22:44;;;;;;;1.88;0.80;;;;;;;21.23;76.90;100756.94;5026465;28;20486;-72
2023/08/06 07:25:09;;;;;;;1.90;0.45;;;;;;;21.33;75.92;100746.66;5018373;28;20389;-72
2023/08/06 07:27:36;;;;;;;1.33;0.88;;;;;;;21.69;75.23;100761.47;5026846;28;20037;-71
2023/08/06 07:30:01;;;;;;;5.65;0.82;;;;;;;20.61;79.39;100767.38;5023496;28;20056;-72
2023/08/06 07:32:27;;;;;;;2.10;0.70;;;;;;;21.26;78.72;100767.41;5019560;28;20076;-72
2023/08/06 07:34:56;;;;;;;3.78;1.17;;;;;;;21.56;75.59;100766.66;5029009;28;20029;-72
2023/08/06 07:37:22;;;;;;;3.92;1.05;;;;;;;22.32;71.98;100760.41;5029214;28;20033;-72
2023/08/06 07:39:48;;;;;;;4.82;1.15;;;;;;;21.32;76.42;100768.84;5011602;28;20033;-72
2023/08/06 07:42:13;;;;;;;2.38;0.82;;;;;;;21.33;75.92;100767.91;5045811;28;20398;-71
2023/08/06 07:44:39;;;;;;;4.20;0.90;;;;;;;22.00;72.45;100765.84;5026805;28;20486;-71
2023/08/06 07:47:05;;;;;;;1.63;1.10;;;;;;;21.55;74.74;100769.41;5028430;28;20486;-72
2023/08/06 07:49:30;;;;;;;1.52;0.65;;;;;;;21.84;72.45;100765.91;5023809;28;20220;-72
2023/08/06 07:51:56;;;;;;;2.22;0.63;;;;;;;21.66;71.95;100761.66;5022496;28;20092;-72
2023/08/06 07:54:22;;;;;;;1.67;0.85;;;;;;;22.16;70.20;100768.47;5029145;28;20029;-72
2023/08/06 07:56:47;;;;;;;3.58;1.50;;;;;;;22.12;72.86;100758.97;5026369;28;20152;-71
2023/08/06 07:59:13;;;;;;;2.70;1.00;;;;;;;21.98;73.20;100769.53;5044498;28;20128;-71
2023/08/06 08:01:38;;;;;;;3.33;1.02;;;;;;;21.99;71.16;100768.59;5027273;28;20114;-71
2023/08/06 08:04:04;;;;;;;1.00;0.88;;;;;;;22.19;71.34;100770.09;5014710;28;20394;-71
2023/08/06 08:06:30;;;;;;;1.75;0.90;;;;;;;22.33;69.12;100771.94;5027804;28;20029;-71
2023/08/06 08:08:55;;;;;;;1.90;1.15;;;;;;;22.30;70.72;100774.78;5029999;28;20044;-71
2023/08/06 08:11:21;;;;;;;2.72;1.30;;;;;;;22.47;66.99;100769.28;5028075;28;20037;-71
2023/08/06 08:13:46;;;;;;;2.78;1.02;;;;;;;22.15;67.99;100772.06;5018673;28;20040;-71
2023/08/06 08:16:11;;;;;;;1.10;1.00;;;;;;;22.15;67.98;100772.06;5021589;28;20033;-71
2023/08/06 08:18:37;;;;;;;3.08;0.80;;;;;;;22.72;66.31;100775.78;5023297;28;20033;-70
2023/08/06 08:21:02;;;;;;;1.50;1.02;;;;;;;22.58;65.88;100775.78;5028078;28;20033;-71
2023/08/06 08:23:28;;;;;;;4.28;1.27;;;;;;;22.49;67.69;100778.06;5028160;28;20421;-71
2023/08/06 08:25:53;;;;;;;2.03;1.00;;;;;;;22.33;68.06;100766.59;5027164;28;20398;-72
2023/08/06 08:28:19;;;;;;;3.58;0.98;;;;;;;22.76;66.17;100776.44;5045166;28;20166;-71
2023/08/06 08:30:44;;;;;;;2.17;0.98;;;;;;;21.95;68.41;100778.56;5027219;28;20481;-71
2023/08/06 08:33:10;;;;;;;2.33;1.00;;;;;;;22.72;66.26;100782.94;5011100;28;20041;-70
2023/08/06 08:35:36;;;;;;;2.22;0.80;;;;;;;21.75;67.68;100785.06;5015640;28;20046;-71
2023/08/06 08:38:02;;;;;;;2.25;1.02;;;;;;;22.31;68.32;100787.13;5009658;28;20109;-71
2023/08/06 08:40:32;;;;;;;1.92;1.27;;;;;;;22.52;66.72;100783.19;5013669;28;20108;-71
2023/08/06 08:42:58;;;;;;;2.67;1.05;;;;;;;21.89;69.06;100794.06;5018608;28;20029;-71
2023/08/06 08:45:28;;;;;;;1.55;1.10;;;;;;;22.71;65.35;100787.41;5017013;28;20035;-71
2023/08/06 08:47:54;;;;;;;1.13;0.85;;;;;;;21.43;70.63;100793.06;5026192;28;20452;-71
2023/08/06 08:50:20;;;;;;;1.20;0.90;;;;;;;22.61;66.34;100797.75;5027456;28;20148;-70
2023/08/06 08:52:47;;;;;;;4.10;1.00;;;;;;;22.17;67.40;100799.47;5043025;28;20318;-71
2023/08/06 08:55:16;;;;;;;4.45;1.17;;;;;;;22.25;64.92;100798.16;5027133;28;20088;-70
2023/08/06 08:57:42;;;;;;;2.80;1.25;;;;;;;21.12;69.21;100810.69;5018738;28;20029;-71
2023/08/06 09:00:07;;;;;;;1.83;1.00;;;;;;;22.11;67.09;100799.81;5026548;28;20025;-70
2023/08/06 09:02:37;;;;;;;1.73;0.70;;;;;;;22.67;63.69;100801.88;5029005;28;20036;-71
2023/08/06 09:05:04;;;;;;;2.42;0.77;;;;;;;22.77;62.17;100805.66;5027510;28;20040;-71
2023/08/06 09:07:41;;;;;;;1.17;1.00;;;;;;;22.22;65.05;100806.31;5026936;28;20040;-70
2023/08/06 09:10:10;;;;;;;2.17;0.77;;;;;;;22.23;65.16;100814.22;5024935;28;20095;-71
2023/08/06 09:12:35;;;;;;;1.35;0.80;;;;;;;21.95;66.31;100817.63;5045836;28;20037;-71
2023/08/06 09:15:03;;;;;;;5.47;1.48;;;;;;;21.84;70.02;100816.47;5031054;28;20035;-70
2023/08/06 09:17:29;;;;;;;2.25;0.90;;;;;;;22.21;65.30;100810.78;5019936;28;20104;-70
2023/08/06 09:19:54;;;;;;;1.27;0.98;;;;;;;22.81;64.79;100815.19;5022304;28;20317;-71
2023/08/06 09:22:19;;;;;;;1.42;0.98;;;;;;;22.43;64.44;100821.03;5014369;28;20033;-71
2023/08/06 09:24:45;;;;;;;3.70;1.00;;;;;;;22.15;64.05;100822.66;5029042;28;20160;-70
2023/08/06 09:27:15;;;;;;;1.92;0.77;;;;;;;22.32;65.08;100826.13;5032857;28;20478;-70
2023/08/06 09:29:45;;;;;;;2.35;1.02;;;;;;;22.17;64.68;100831.41;5011615;28;20111;-71
2023/08/06 09:32:11;;;;;;;2.33;0.82;;;;;;;21.80;nan;100828.22;5047879;28;20065;-71
2023/08/06 09:34:39;;;;;;;1.10;0.73;;;;;;;22.55;63.99;100823.94;5030942;28;20048;-71
2023/08/06 09:37:05;;;;;;;2.25;0.82;;;;;;;22.52;62.02;100830.28;5029586;28;20037;-70
2023/08/06 09:39:30;;;;;;;1.20;1.08;;;;;;;23.07;62.61;100838.47;5030657;28;20124;-71
2023/08/06 09:41:57;;;;;;;1.92;1.15;;;;;;;24.15;58.44;100839.59;5016676;28;20133;-71
2023/08/06 09:44:26;;;;;;;3.20;1.02;;;;;;;24.11;58.53;100841.63;5027490;28;20079;-71
2023/08/06 09:46:53;;;;;;;2.78;1.17;;;;;;;23.24;59.70;100838.31;5022406;28;20040;-71
2023/08/06 09:49:20;;;;;;;2.42;0.70;;;;;;;23.79;58.00;100846.38;5015211;28;20052;-71
2023/08/06 09:51:50;;;;;;;0.77;0.70;;;;;;;23.48;57.14;100851.03;5028391;28;20493;-71
2023/08/06 09:54:16;;;;;;;2.28;0.95;;;;;;;23.30;56.83;100853.06;5016055;28;20553;-71
2023/08/06 09:56:43;;;;;;;3.10;0.70;;;;;;;23.19;56.76;100857.28;5026777;28;20045;-71
2023/08/06 09:59:09;;;;;;;1.85;0.90;;;;;;;23.47;56.34;100860.84;5025986;28;20044;-71
2023/08/06 10:01:38;;;;;;;2.45;0.68;;;;;;;23.77;55.24;100862.50;5013479;28;20041;-71
2023/08/06 10:04:05;;;;;;;1.05;0.65;;;;;;;24.67;54.04;100861.94;5043619;28;20611;-70
2023/08/06 10:06:36;;;;;;;0.63;0.60;;;;;;;24.18;52.62;100863.41;5031910;28;20037;-71
2023/08/06 10:09:02;;;;;;;2.63;0.70;;;;;;;23.21;53.27;100871.34;5029245;28;20033;-72
2023/08/06 10:11:28;;;;;;;2.63;0.70;;;;;;;24.26;51.16;100868.25;5018829;28;20032;-72
2023/08/06 10:14:04;;;;;;;1.58;0.70;;;;;;;24.58;50.62;100873.22;5018310;28;20034;-71
2023/08/06 10:16:31;;;;;;;1.60;0.50;;;;;;;24.74;50.78;100868.56;5016590;28;20029;-71
2023/08/06 10:18:57;;;;;;;2.42;0.52;;;;;;;24.72;51.08;100874.00;5028754;28;20025;-71
2023/08/06 10:21:23;;;;;;;1.08;0.70;;;;;;;25.08;49.68;100874.22;5029980;28;20033;-71
2023/08/06 10:23:54;;;;;;;1.35;0.70;;;;;;;24.21;52.82;100882.75;5034322;28;20033;-71
2023/08/06 10:26:20;;;;;;;0.93;0.63;;;;;;;23.60;53.15;100876.06;5029752;28;20025;-71
2023/08/06 10:28:45;;;;;;;0.65;0.60;;;;;;;23.46;53.13;100874.28;5013860;28;20034;-72
2023/08/06 10:31:11;;;;;;;3.58;0.82;;;;;;;23.97;51.60;100876.38;5027965;28;20409;-71
2023/08/06 10:33:43;;;;;;;1.20;0.60;;;;;;;24.47;50.31;100877.50;5041138;28;20033;-71
2023/08/06 10:36:09;;;;;;;3.28;0.57;;;;;;;24.78;49.28;100880.75;5021299;28;20025;-71
2023/08/06 10:38:43;;;;;;;0.75;0.70;;;;;;;25.67;48.53;100875.41;5026511;28;20037;-71
2023/08/06 10:41:28;;;;;;;0.73;0.45;;;;;;;25.37;48.10;100865.97;5029633;28;20082;-71
2023/08/06 10:44:09;;;;;;;0.70;0.60;;;;;;;25.13;48.81;100874.75;5017242;28;20029;-72
2023/08/06 10:46:35;;;;;;;1.35;0.70;;;;;;;24.81;47.73;100880.56;5039152;28;20540;-71
2023/08/06 10:49:01;;;;;;;2.90;0.70;;;;;;;24.97;48.79;100892.84;5031021;28;20037;-71
2023/08/06 10:51:27;;;;;;;1.98;0.80;;;;;;;24.59;50.09;100888.28;5029437;28;20028;-71
2023/08/06 10:53:53;;;;;;;0.98;0.60;;;;;;;24.03;50.04;100894.69;5044338;28;20021;-71
2023/08/06 10:56:23;;;;;;;1.63;0.70;;;;;;;24.87;49.37;100885.44;5030822;28;20497;-71
2023/08/06 10:58:51;;;;;;;0.88;0.70;;;;;;;25.57;47.32;100889.47;5032545;28;20061;-71
2023/08/06 11:01:17;;;;;;;1.05;0.75;;;;;;;25.01;47.23;100891.66;5030015;28;20032;-71
2023/08/06 11:03:44;;;;;;;0.90;0.50;;;;;;;26.19;45.45;100890.31;5030268;28;20025;-71
2023/08/06 11:06:10;;;;;;;2.00;0.50;;;;;;;24.94;48.01;100888.56;5030743;28;20028;-71
2023/08/06 11:08:38;;;;;;;0.77;0.70;;;;;;;25.61;47.54;100886.56;5027441;28;20120;-71
2023/08/06 11:11:12;;;;;;;1.38;0.70;;;;;;;24.34;48.21;100890.78;5028872;28;20481;-71
2023/08/06 11:13:38;;;;;;;3.53;1.40;;;;;;;24.33;48.59;100896.25;5027277;28;20026;-70
2023/08/06 11:16:05;;;;;;;2.83;0.80;;;;;;;24.45;49.00;100900.75;5010746;28;20028;-71
2023/08/06 11:18:32;;;;;;;0.60;0.50;;;;;;;23.83;49.69;100902.13;5031339;28;20036;-72
2023/08/06 11:21:01;;;;;;;2.30;0.63;;;;;;;24.80;48.04;100905.56;5029168;28;20045;-72